sensor_id;sensor_type;location;lat;lon;timestamp;pressure;altitude;pressure_sealevel;temperature;humidity
69971;BME280;57301;50.328;8.542;2022-12-18T00:02:00;99792.88;;;-13.02;81.13
69971;BME280;57301;50.328;8.542;2022-12-18T00:04:31;99800.44;;;-13.13;80.79
69971;BME280;57301;50.328;8.542;2022-12-18T00:06:57;99798.94;;;-13.00;81.75
69971;BME280;57301;50.328;8.542;2022-12-18T00:09:27;99785.25;;;-12.99;81.42
69971;BME280;57301;50.328;8.542;2022-12-18T00:12:06;99788.84;;;-12.86;80.70
69971;BME280;57301;50.328;8.542;2022-12-18T00:14:41;99799.13;;;-12.88;80.40
69971;BME280;57301;50.328;8.542;2022-12-18T00:17:11;99787.97;;;-12.88;79.89
69971;BME280;57301;50.328;8.542;2022-12-18T00:19:37;99792.03;;;-13.03;78.84
69971;BME280;57301;50.328;8.542;2022-12-18T00:22:13;99785.00;;;-13.14;79.41
69971;BME280;57301;50.328;8.542;2022-12-18T00:24:54;99785.84;;;-13.17;80.39
69971;BME280;57301;50.328;8.542;2022-12-18T00:27:20;99785.00;;;-13.14;80.03
69971;BME280;57301;50.328;8.542;2022-12-18T00:29:49;99787.63;;;-13.13;80.31
69971;BME280;57301;50.328;8.542;2022-12-18T00:32:18;99790.03;;;-13.23;80.46
69971;BME280;57301;50.328;8.542;2022-12-18T00:34:44;99794.34;;;-13.22;80.27
69971;BME280;57301;50.328;8.542;2022-12-18T00:37:11;99792.69;;;-13.14;80.31
69971;BME280;57301;50.328;8.542;2022-12-18T00:39:45;99778.16;;;-13.15;79.55
69971;BME280;57301;50.328;8.542;2022-12-18T00:42:13;99794.38;;;-13.19;79.72
69971;BME280;57301;50.328;8.542;2022-12-18T00:44:58;99789.78;;;-13.40;79.71
69971;BME280;57301;50.328;8.542;2022-12-18T00:47:36;99794.03;;;-13.41;80.59
69971;BME280;57301;50.328;8.542;2022-12-18T00:50:06;99796.81;;;-13.29;80.66
69971;BME280;57301;50.328;8.542;2022-12-18T00:52:32;99798.59;;;-13.24;79.55
69971;BME280;57301;50.328;8.542;2022-12-18T00:54:59;99797.56;;;-13.33;79.79
69971;BME280;57301;50.328;8.542;2022-12-18T00:57:31;99806.22;;;-13.27;79.54
69971;BME280;57301;50.328;8.542;2022-12-18T00:59:58;99798.50;;;-13.29;80.45
69971;BME280;57301;50.328;8.542;2022-12-18T01:02:24;99795.13;;;-13.26;79.36
69971;BME280;57301;50.328;8.542;2022-12-18T01:04:51;99797.56;;;-13.33;80.28
69971;BME280;57301;50.328;8.542;2022-12-18T01:07:18;99796.78;;;-13.32;80.77
69971;BME280;57301;50.328;8.542;2022-12-18T01:09:44;99800.13;;;-13.34;80.65
69971;BME280;57301;50.328;8.542;2022-12-18T01:12:11;99803.78;;;-13.18;81.16
69971;BME280;57301;50.328;8.542;2022-12-18T01:14:37;99812.34;;;-13.18;79.78
69971;BME280;57301;50.328;8.542;2022-12-18T01:17:04;99819.69;;;-13.41;79.73
69971;BME280;57301;50.328;8.542;2022-12-18T01:19:31;99824.81;;;-13.41;80.21
69971;BME280;57301;50.328;8.542;2022-12-18T01:21:58;99822.34;;;-13.36;80.57
69971;BME280;57301;50.328;8.542;2022-12-18T01:24:25;99829.88;;;-13.45;80.20
69971;BME280;57301;50.328;8.542;2022-12-18T01:26:51;99820.72;;;-13.31;79.90
69971;BME280;57301;50.328;8.542;2022-12-18T01:29:18;99828.34;;;-13.34;79.85
69971;BME280;57301;50.328;8.542;2022-12-18T01:31:44;99824.06;;;-13.35;80.34
69971;BME280;57301;50.328;8.542;2022-12-18T01:34:11;99835.91;;;-13.42;79.77
69971;BME280;57301;50.328;8.542;2022-12-18T01:36:38;99833.47;;;-13.36;80.44
69971;BME280;57301;50.328;8.542;2022-12-18T01:39:09;99834.31;;;-13.37;80.39
69971;BME280;57301;50.328;8.542;2022-12-18T01:41:36;99830.78;;;-13.42;79.96
69971;BME280;57301;50.328;8.542;2022-12-18T01:45:00;99817.00;;;-13.48;79.97
69971;BME280;57301;50.328;8.542;2022-12-18T01:47:51;99814.53;;;-13.44;80.09
69971;BME280;57301;50.328;8.542;2022-12-18T01:50:24;99811.97;;;-13.42;79.75
69971;BME280;57301;50.328;8.542;2022-12-18T01:52:53;99814.47;;;-13.47;80.09
69971;BME280;57301;50.328;8.542;2022-12-18T01:55:24;99821.19;;;-13.52;80.53
69971;BME280;57301;50.328;8.542;2022-12-18T01:57:57;99826.41;;;-13.49;80.53
69971;BME280;57301;50.328;8.542;2022-12-18T02:00:25;99821.28;;;-13.47;80.16
69971;BME280;57301;50.328;8.542;2022-12-18T02:02:53;99821.22;;;-13.50;80.22
69971;BME280;57301;50.328;8.542;2022-12-18T02:08:46;99820.19;;;-13.62;80.43
69971;BME280;57301;50.328;8.542;2022-12-18T02:16:48;99815.19;;;-13.54;80.54
69971;BME280;57301;50.328;8.542;2022-12-18T02:28:16;99799.53;;;-13.69;80.38
69971;BME280;57301;50.328;8.542;2022-12-18T02:30:47;99812.28;;;-13.74;80.07
69971;BME280;57301;50.328;8.542;2022-12-18T02:33:17;99804.81;;;-13.60;80.50
69971;BME280;57301;50.328;8.542;2022-12-18T02:35:45;99806.47;;;-13.64;80.01
69971;BME280;57301;50.328;8.542;2022-12-18T02:38:14;99803.97;;;-13.59;79.47
69971;BME280;57301;50.328;8.542;2022-12-18T02:40:43;99802.06;;;-13.72;79.34
69971;BME280;57301;50.328;8.542;2022-12-18T02:43:13;99807.69;;;-13.92;78.96
69971;BME280;57301;50.328;8.542;2022-12-18T02:48:14;99814.63;;;-13.86;80.22
69971;BME280;57301;50.328;8.542;2022-12-18T02:50:57;99817.31;;;-13.80;79.51
69971;BME280;57301;50.328;8.542;2022-12-18T02:53:33;99811.16;;;-13.88;79.76
69971;BME280;57301;50.328;8.542;2022-12-18T02:56:21;99817.97;;;-13.89;79.19
69971;BME280;57301;50.328;8.542;2022-12-18T02:59:02;99805.88;;;-13.96;79.21
69971;BME280;57301;50.328;8.542;2022-12-18T03:04:12;99818.50;;;-14.06;80.08
69971;BME280;57301;50.328;8.542;2022-12-18T03:06:44;99820.06;;;-14.13;80.85
69971;BME280;57301;50.328;8.542;2022-12-18T03:09:17;99816.03;;;-14.00;81.31
69971;BME280;57301;50.328;8.542;2022-12-18T03:11:50;99801.66;;;-13.94;81.12
69971;BME280;57301;50.328;8.542;2022-12-18T03:15:04;99812.97;;;-13.83;80.82
69971;BME280;57301;50.328;8.542;2022-12-18T03:17:45;99806.94;;;-13.86;80.22
69971;BME280;57301;50.328;8.542;2022-12-18T03:20:15;99805.22;;;-13.86;79.98
69971;BME280;57301;50.328;8.542;2022-12-18T03:22:47;99801.06;;;-13.80;79.80
69971;BME280;57301;50.328;8.542;2022-12-18T03:25:17;99800.91;;;-13.88;80.63
69971;BME280;57301;50.328;8.542;2022-12-18T03:27:48;99801.72;;;-13.89;79.98
69971;BME280;57301;50.328;8.542;2022-12-18T03:30:16;99805.06;;;-13.93;81.02
69971;BME280;57301;50.328;8.542;2022-12-18T03:32:58;99796.56;;;-13.92;81.12
69971;BME280;57301;50.328;8.542;2022-12-18T03:35:33;99797.44;;;-13.90;80.59
69971;BME280;57301;50.328;8.542;2022-12-18T03:38:00;99802.69;;;-13.84;80.25
69971;BME280;57301;50.328;8.542;2022-12-18T03:40:53;99807.72;;;-13.89;80.10
69971;BME280;57301;50.328;8.542;2022-12-18T03:46:24;99791.47;;;-13.89;79.78
69971;BME280;57301;50.328;8.542;2022-12-18T03:48:59;99789.75;;;-13.92;78.96
69971;BME280;57301;50.328;8.542;2022-12-18T03:52:00;99796.53;;;-13.94;80.18
69971;BME280;57301;50.328;8.542;2022-12-18T03:54:25;99804.06;;;-14.03;80.10
69971;BME280;57301;50.328;8.542;2022-12-18T03:56:58;99812.50;;;-14.07;80.10
69971;BME280;57301;50.328;8.542;2022-12-18T03:59:27;99804.91;;;-14.02;80.38
69971;BME280;57301;50.328;8.542;2022-12-18T04:01:56;99806.78;;;-13.94;80.73
69971;BME280;57301;50.328;8.542;2022-12-18T04:04:25;99804.09;;;-14.00;80.06
69971;BME280;57301;50.328;8.542;2022-12-18T04:06:54;99811.75;;;-14.01;79.48
69971;BME280;57301;50.328;8.542;2022-12-18T04:09:21;99801.59;;;-13.97;79.82
69971;BME280;57301;50.328;8.542;2022-12-18T04:11:48;99791.28;;;-14.00;79.84
69971;BME280;57301;50.328;8.542;2022-12-18T04:14:15;99786.94;;;-14.04;79.64
69971;BME280;57301;50.328;8.542;2022-12-18T04:16:43;99784.34;;;-14.05;79.85
69971;BME280;57301;50.328;8.542;2022-12-18T04:19:10;99788.66;;;-14.04;79.97
69971;BME280;57301;50.328;8.542;2022-12-18T04:21:36;99789.41;;;-14.08;79.91
69971;BME280;57301;50.328;8.542;2022-12-18T04:24:03;99796.97;;;-14.16;79.52
69971;BME280;57301;50.328;8.542;2022-12-18T04:26:30;99793.59;;;-14.12;79.71
69971;BME280;57301;50.328;8.542;2022-12-18T04:28:56;99791.22;;;-14.04;79.10
69971;BME280;57301;50.328;8.542;2022-12-18T04:31:22;99789.34;;;-14.12;79.62
69971;BME280;57301;50.328;8.542;2022-12-18T04:33:49;99802.13;;;-14.13;79.49
69971;BME280;57301;50.328;8.542;2022-12-18T04:36:15;99793.50;;;-14.18;79.53
69971;BME280;57301;50.328;8.542;2022-12-18T04:38:42;99793.50;;;-14.18;79.41
69971;BME280;57301;50.328;8.542;2022-12-18T04:41:08;99793.59;;;-14.12;79.53
69971;BME280;57301;50.328;8.542;2022-12-18T04:43:35;99794.41;;;-14.16;79.86
69971;BME280;57301;50.328;8.542;2022-12-18T04:46:06;99790.75;;;-14.27;79.71
69971;BME280;57301;50.328;8.542;2022-12-18T04:48:34;99790.63;;;-14.35;80.01
69971;BME280;57301;50.328;8.542;2022-12-18T04:51:01;99789.81;;;-14.31;80.30
69971;BME280;57301;50.328;8.542;2022-12-18T04:53:27;99781.28;;;-14.31;80.58
69971;BME280;57301;50.328;8.542;2022-12-18T04:58:30;99778.97;;;-14.18;80.16
69971;BME280;57301;50.328;8.542;2022-12-18T05:00:57;99779.06;;;-14.13;80.28
69971;BME280;57301;50.328;8.542;2022-12-18T05:03:23;99785.97;;;-14.11;80.11
69971;BME280;57301;50.328;8.542;2022-12-18T05:05:50;99775.75;;;-14.09;80.34
69971;BME280;57301;50.328;8.542;2022-12-18T05:08:18;99787.50;;;-14.19;79.69
69971;BME280;57301;50.328;8.542;2022-12-18T05:10:45;99796.13;;;-14.15;79.48
69971;BME280;57301;50.328;8.542;2022-12-18T05:13:11;99796.00;;;-14.21;79.62
69971;BME280;57301;50.328;8.542;2022-12-18T05:15:38;99794.28;;;-14.22;79.12
69971;BME280;57301;50.328;8.542;2022-12-18T05:18:04;99796.72;;;-14.28;79.27
69971;BME280;57301;50.328;8.542;2022-12-18T05:20:31;99801.97;;;-14.22;79.23
69971;BME280;57301;50.328;8.542;2022-12-18T05:22:57;99797.63;;;-14.26;79.26
69971;BME280;57301;50.328;8.542;2022-12-18T05:25:24;99799.19;;;-14.33;79.52
69971;BME280;57301;50.328;8.542;2022-12-18T05:27:51;99805.94;;;-14.37;80.20
69971;BME280;57301;50.328;8.542;2022-12-18T05:30:17;99808.56;;;-14.33;80.49
69971;BME280;57301;50.328;8.542;2022-12-18T05:32:44;99794.03;;;-14.34;79.66
69971;BME280;57301;50.328;8.542;2022-12-18T05:35:10;99794.19;;;-14.27;81.07
69971;BME280;57301;50.328;8.542;2022-12-18T05:37:37;99797.88;;;-14.13;80.98
69971;BME280;57301;50.328;8.542;2022-12-18T05:40:09;99782.66;;;-14.05;80.47
69971;BME280;57301;50.328;8.542;2022-12-18T05:42:36;99786.34;;;-13.91;79.18
69971;BME280;57301;50.328;8.542;2022-12-18T05:45:03;99781.75;;;-14.07;78.95
69971;BME280;57301;50.328;8.542;2022-12-18T05:47:30;99785.13;;;-14.10;78.59
69971;BME280;57301;50.328;8.542;2022-12-18T05:49:56;99790.31;;;-14.06;78.80
69971;BME280;57301;50.328;8.542;2022-12-18T05:52:23;99789.00;;;-14.30;78.57
69971;BME280;57301;50.328;8.542;2022-12-18T05:54:49;99788.25;;;-14.24;79.32
69971;BME280;57301;50.328;8.542;2022-12-18T05:57:16;99794.09;;;-14.31;79.26
69971;BME280;57301;50.328;8.542;2022-12-18T05:59:42;99792.50;;;-14.25;79.43
69971;BME280;57301;50.328;8.542;2022-12-18T06:02:09;99800.94;;;-14.30;79.34
69971;BME280;57301;50.328;8.542;2022-12-18T06:04:36;99800.25;;;-14.23;80.57
69971;BME280;57301;50.328;8.542;2022-12-18T06:07:02;99802.00;;;-14.21;80.39
69971;BME280;57301;50.328;8.542;2022-12-18T06:09:29;99802.94;;;-14.17;80.40
69971;BME280;57301;50.328;8.542;2022-12-18T06:11:55;99803.06;;;-14.11;79.72
69971;BME280;57301;50.328;8.542;2022-12-18T06:14:22;99800.53;;;-14.08;79.63
69971;BME280;57301;50.328;8.542;2022-12-18T06:16:50;99802.00;;;-14.21;79.43
69971;BME280;57301;50.328;8.542;2022-12-18T06:19:17;99804.47;;;-14.24;80.82
69971;BME280;57301;50.328;8.542;2022-12-18T06:21:44;99802.94;;;-14.16;80.98
69971;BME280;57301;50.328;8.542;2022-12-18T06:24:10;99799.47;;;-14.18;81.78
69971;BME280;57301;50.328;8.542;2022-12-18T06:26:38;99791.88;;;-14.13;81.53
69971;BME280;57301;50.328;8.542;2022-12-18T06:29:05;99802.22;;;-14.10;81.87
69971;BME280;57301;50.328;8.542;2022-12-18T06:31:32;99803.00;;;-14.13;81.22
69971;BME280;57301;50.328;8.542;2022-12-18T06:34:01;99808.19;;;-14.11;81.62
69971;BME280;57301;50.328;8.542;2022-12-18T06:36:28;99797.97;;;-14.08;81.54
69971;BME280;57301;50.328;8.542;2022-12-18T06:38:55;99799.03;;;-13.98;82.02
69971;BME280;57301;50.328;8.542;2022-12-18T06:41:23;99798.44;;;-13.84;81.20
69971;BME280;57301;50.328;8.542;2022-12-18T06:43:49;99805.00;;;-13.98;80.68
69971;BME280;57301;50.328;8.542;2022-12-18T06:46:16;99811.78;;;-14.00;81.02
69971;BME280;57301;50.328;8.542;2022-12-18T06:48:42;99821.34;;;-13.93;80.91
69971;BME280;57301;50.328;8.542;2022-12-18T06:51:09;99818.88;;;-13.87;80.79
69971;BME280;57301;50.328;8.542;2022-12-18T06:53:35;99827.56;;;-13.80;81.02
69971;BME280;57301;50.328;8.542;2022-12-18T06:56:05;99826.69;;;-13.80;81.61
69971;BME280;57301;50.328;8.542;2022-12-18T06:58:36;99836.94;;;-13.80;81.75
69971;BME280;57301;50.328;8.542;2022-12-18T07:01:05;99832.84;;;-13.71;81.27
69971;BME280;57301;50.328;8.542;2022-12-18T07:03:32;99833.75;;;-13.67;80.85
69971;BME280;57301;50.328;8.542;2022-12-18T07:05:58;99845.00;;;-13.61;80.43
69971;BME280;57301;50.328;8.542;2022-12-18T07:08:25;99837.97;;;-13.69;80.50
69971;BME280;57301;50.328;8.542;2022-12-18T07:10:51;99844.78;;;-13.71;81.35
69971;BME280;57301;50.328;8.542;2022-12-18T07:13:22;99842.31;;;-13.68;80.92
69971;BME280;57301;50.328;8.542;2022-12-18T07:15:49;99839.88;;;-13.61;81.76
69971;BME280;57301;50.328;8.542;2022-12-18T07:18:15;99847.03;;;-13.43;80.56
69971;BME280;57301;50.328;8.542;2022-12-18T07:20:42;99838.41;;;-13.46;79.61
69971;BME280;57301;50.328;8.542;2022-12-18T07:23:08;99833.16;;;-13.52;79.34
69971;BME280;57301;50.328;8.542;2022-12-18T07:25:36;99831.41;;;-13.55;79.85
69971;BME280;57301;50.328;8.542;2022-12-18T07:28:03;99822.91;;;-13.52;80.41
69971;BME280;57301;50.328;8.542;2022-12-18T07:30:30;99820.75;;;-13.30;80.78
69971;BME280;57301;50.328;8.542;2022-12-18T07:32:57;99830.22;;;-13.25;80.95
69971;BME280;57301;50.328;8.542;2022-12-18T07:35:23;99823.22;;;-13.34;80.40
69971;BME280;57301;50.328;8.542;2022-12-18T07:37:50;99829.66;;;-13.05;82.17
69971;BME280;57301;50.328;8.542;2022-12-18T07:40:17;99836.56;;;-13.01;80.44
69971;BME280;57301;50.328;8.542;2022-12-18T07:42:43;99839.94;;;-13.02;82.00
69971;BME280;57301;50.328;8.542;2022-12-18T07:45:10;99825.50;;;-12.95;81.43
69971;BME280;57301;50.328;8.542;2022-12-18T07:47:37;99831.63;;;-12.88;81.86
69971;BME280;57301;50.328;8.542;2022-12-18T07:50:04;99823.28;;;-12.74;82.44
69971;BME280;57301;50.328;8.542;2022-12-18T07:52:30;99831.81;;;-12.75;84.12
69971;BME280;57301;50.328;8.542;2022-12-18T07:54:58;99830.31;;;-12.60;82.88
69971;BME280;57301;50.328;8.542;2022-12-18T07:57:24;99821.13;;;-12.41;84.27
69971;BME280;57301;50.328;8.542;2022-12-18T08:00:11;99826.59;;;-12.15;83.43
69971;BME280;57301;50.328;8.542;2022-12-18T08:02:38;99822.50;;;-12.03;85.05
69971;BME280;57301;50.328;8.542;2022-12-18T08:05:05;99821.91;;;-11.74;86.30
69971;BME280;57301;50.328;8.542;2022-12-18T08:07:32;99817.16;;;-11.34;86.17
69971;BME280;57301;50.328;8.542;2022-12-18T08:09:58;99826.13;;;-10.84;85.72
69971;BME280;57301;50.328;8.542;2022-12-18T08:12:25;99822.19;;;-10.13;85.83
69971;BME280;57301;50.328;8.542;2022-12-18T08:14:51;99814.66;;;-9.35;84.66
69971;BME280;57301;50.328;8.542;2022-12-18T08:17:19;99811.19;;;-8.63;83.52
69971;BME280;57301;50.328;8.542;2022-12-18T08:19:46;99807.50;;;-7.98;81.08
69971;BME280;57301;50.328;8.542;2022-12-18T08:22:12;99809.00;;;-7.53;77.77
69971;BME280;57301;50.328;8.542;2022-12-18T08:24:39;99813.00;;;-7.09;76.25
69971;BME280;57301;50.328;8.542;2022-12-18T08:27:05;99802.41;;;-6.83;73.86
69971;BME280;57301;50.328;8.542;2022-12-18T08:29:52;99801.06;;;-6.35;72.12
69971;BME280;57301;50.328;8.542;2022-12-18T08:32:18;99801.34;;;-5.87;71.44
69971;BME280;57301;50.328;8.542;2022-12-18T08:34:45;99791.25;;;-5.47;69.48
69971;BME280;57301;50.328;8.542;2022-12-18T08:37:11;99792.25;;;-5.00;68.08
69971;BME280;57301;50.328;8.542;2022-12-18T08:39:37;99795.34;;;-4.76;66.48
69971;BME280;57301;50.328;8.542;2022-12-18T08:42:04;99789.69;;;-4.52;65.86
69971;BME280;57301;50.328;8.542;2022-12-18T08:44:49;99777.00;;;-4.24;64.05
69971;BME280;57301;50.328;8.542;2022-12-18T08:47:15;99784.69;;;-4.18;65.36
69971;BME280;57301;50.328;8.542;2022-12-18T08:49:42;99764.03;;;-3.84;62.89
69971;BME280;57301;50.328;8.542;2022-12-18T08:52:08;99762.09;;;-3.75;62.70
69971;BME280;57301;50.328;8.542;2022-12-18T08:54:38;99760.03;;;-3.60;62.45
69971;BME280;57301;50.328;8.542;2022-12-18T08:57:04;99760.78;;;-3.55;62.37
69971;BME280;57301;50.328;8.542;2022-12-18T08:59:30;99764.44;;;-3.63;63.29
69971;BME280;57301;50.328;8.542;2022-12-18T09:01:59;99761.41;;;-3.45;63.37
69971;BME280;57301;50.328;8.542;2022-12-18T09:04:29;99762.50;;;-3.54;63.46
69971;BME280;57301;50.328;8.542;2022-12-18T09:06:55;99763.06;;;-3.41;64.82
69971;BME280;57301;50.328;8.542;2022-12-18T09:09:22;99755.72;;;-3.23;65.28
69971;BME280;57301;50.328;8.542;2022-12-18T09:11:48;99754.84;;;-2.88;64.63
69971;BME280;57301;50.328;8.542;2022-12-18T09:14:18;99760.09;;;-2.56;63.65
69971;BME280;57301;50.328;8.542;2022-12-18T09:16:45;99768.69;;;-2.21;62.84
69971;BME280;57301;50.328;8.542;2022-12-18T09:19:14;99775.66;;;-1.91;62.52
69971;BME280;57301;50.328;8.542;2022-12-18T09:21:44;99772.84;;;-1.53;61.99
69971;BME280;57301;50.328;8.542;2022-12-18T09:24:14;99777.28;;;-1.29;61.83
69971;BME280;57301;50.328;8.542;2022-12-18T09:26:47;99776.97;;;-1.18;61.38
69971;BME280;57301;50.328;8.542;2022-12-18T09:29:17;99769.13;;;-0.40;60.55
69971;BME280;57301;50.328;8.542;2022-12-18T09:31:44;99769.91;;;0.10;58.55
69971;BME280;57301;50.328;8.542;2022-12-18T09:34:12;99777.75;;;0.57;57.91
69971;BME280;57301;50.328;8.542;2022-12-18T09:36:39;99766.66;;;1.57;56.21
69971;BME280;57301;50.328;8.542;2022-12-18T09:39:05;99766.38;;;2.41;54.35
69971;BME280;57301;50.328;8.542;2022-12-18T09:44:32;99767.66;;;3.41;51.40
69971;BME280;57301;50.328;8.542;2022-12-18T09:52:58;99763.75;;;2.23;52.98
69971;BME280;57301;50.328;8.542;2022-12-18T09:55:32;99767.69;;;2.12;54.13
69971;BME280;57301;50.328;8.542;2022-12-18T09:58:13;99764.22;;;2.12;54.01
69971;BME280;57301;50.328;8.542;2022-12-18T10:00:44;99768.88;;;1.86;54.51
69971;BME280;57301;50.328;8.542;2022-12-18T10:03:14;99769.69;;;1.68;54.61
69971;BME280;57301;50.328;8.542;2022-12-18T10:06:05;99769.53;;;1.51;54.26
69971;BME280;57301;50.328;8.542;2022-12-18T10:08:51;99773.59;;;-0.19;57.55
69971;BME280;57301;50.328;8.542;2022-12-18T10:11:50;99766.59;;;-1.49;63.61
69971;BME280;57301;50.328;8.542;2022-12-18T10:17:55;99767.41;;;-0.41;61.02
69971;BME280;57301;50.328;8.542;2022-12-18T10:20:38;99771.06;;;0.48;58.25
69971;BME280;57301;50.328;8.542;2022-12-18T10:23:15;99757.59;;;-1.13;61.49
69971;BME280;57301;50.328;8.542;2022-12-18T10:28:21;99761.22;;;-2.02;64.03
69971;BME280;57301;50.328;8.542;2022-12-18T10:30:48;99744.13;;;-2.78;67.35
69971;BME280;57301;50.328;8.542;2022-12-18T10:33:28;99756.13;;;-2.39;65.26
69971;BME280;57301;50.328;8.542;2022-12-18T10:35:55;99758.03;;;-2.45;65.60
69971;BME280;57301;50.328;8.542;2022-12-18T10:38:29;99741.53;;;-2.47;65.32
69971;BME280;57301;50.328;8.542;2022-12-18T10:48:56;99753.00;;;-3.20;68.46
69971;BME280;57301;50.328;8.542;2022-12-18T10:51:35;99760.88;;;-3.59;68.98
69971;BME280;57301;50.328;8.542;2022-12-18T10:54:06;99757.63;;;-3.32;68.68
69971;BME280;57301;50.328;8.542;2022-12-18T10:56:40;99762.09;;;-3.01;67.84
69971;BME280;57301;50.328;8.542;2022-12-18T10:59:11;99758.59;;;-3.74;69.65
69971;BME280;57301;50.328;8.542;2022-12-18T11:01:52;99771.22;;;-3.56;68.44
69971;BME280;57301;50.328;8.542;2022-12-18T11:04:23;99766.91;;;-3.57;69.68
69971;BME280;57301;50.328;8.542;2022-12-18T11:06:59;99765.56;;;-3.75;69.92
69971;BME280;57301;50.328;8.542;2022-12-18T11:09:37;99758.47;;;-2.95;66.75
69971;BME280;57301;50.328;8.542;2022-12-18T11:12:17;99763.97;;;-2.72;66.08
69971;BME280;57301;50.328;8.542;2022-12-18T11:14:48;99757.41;;;-2.54;65.32
69971;BME280;57301;50.328;8.542;2022-12-18T11:19:57;99748.75;;;-1.09;60.77
69971;BME280;57301;50.328;8.542;2022-12-18T11:22:30;99748.13;;;-1.17;60.83
69971;BME280;57301;50.328;8.542;2022-12-18T11:27:55;99749.09;;;-2.68;64.11
69971;BME280;57301;50.328;8.542;2022-12-18T11:30:32;99738.16;;;-2.83;66.19
69971;BME280;57301;50.328;8.542;2022-12-18T11:33:20;99732.31;;;-2.92;65.68
69971;BME280;57301;50.328;8.542;2022-12-18T11:35:58;99738.84;;;-2.44;64.63
69971;BME280;57301;50.328;8.542;2022-12-18T11:38:32;99736.53;;;-2.23;63.60
69971;BME280;57301;50.328;8.542;2022-12-18T11:41:59;99718.69;;;-2.38;63.68
69971;BME280;57301;50.328;8.542;2022-12-18T11:44:28;99728.81;;;-2.91;66.20
69971;BME280;57301;50.328;8.542;2022-12-18T11:47:01;99733.28;;;-2.31;65.88
69971;BME280;57301;50.328;8.542;2022-12-18T11:49:36;99731.78;;;-3.05;65.02
69971;BME280;57301;50.328;8.542;2022-12-18T11:52:04;99732.59;;;-4.18;69.09
69971;BME280;57301;50.328;8.542;2022-12-18T11:54:35;99730.06;;;-3.79;70.26
69971;BME280;57301;50.328;8.542;2022-12-18T11:57:51;99723.81;;;-3.72;70.48
69971;BME280;57301;50.328;8.542;2022-12-18T12:00:34;99725.31;;;-3.26;69.52
69971;BME280;57301;50.328;8.542;2022-12-18T12:06:25;99723.84;;;-3.36;69.07
69971;BME280;57301;50.328;8.542;2022-12-18T12:09:07;99738.41;;;-3.65;70.10
69971;BME280;57301;50.328;8.542;2022-12-18T12:15:03;99746.88;;;-4.36;71.69
69971;BME280;57301;50.328;8.542;2022-12-18T12:17:39;99744.94;;;-3.84;71.52
69971;BME280;57301;50.328;8.542;2022-12-18T12:20:16;99742.88;;;-4.12;71.49
69971;BME280;57301;50.328;8.542;2022-12-18T12:23:08;99743.88;;;-4.16;72.97
69971;BME280;57301;50.328;8.542;2022-12-18T12:28:24;99737.78;;;-4.61;72.61
69971;BME280;57301;50.328;8.542;2022-12-18T12:34:13;99730.00;;;-4.61;74.68
69971;BME280;57301;50.328;8.542;2022-12-18T12:39:24;99701.31;;;-4.58;74.20
69971;BME280;57301;50.328;8.542;2022-12-18T12:41:54;99710.94;;;-5.62;77.54
69971;BME280;57301;50.328;8.542;2022-12-18T12:44:47;99704.19;;;-5.74;80.23
69971;BME280;57301;50.328;8.542;2022-12-18T12:47:32;99704.22;;;-5.21;78.96
69971;BME280;57301;50.328;8.542;2022-12-18T12:50:03;99715.22;;;-5.58;79.79
69971;BME280;57301;50.328;8.542;2022-12-18T12:52:37;99715.84;;;-5.99;80.91
69971;BME280;57301;50.328;8.542;2022-12-18T12:55:14;99714.41;;;-6.23;82.51
69971;BME280;57301;50.328;8.542;2022-12-18T12:57:54;99711.94;;;-5.71;81.21
69971;BME280;57301;50.328;8.542;2022-12-18T13:00:25;99715.66;;;-5.90;81.46
69971;BME280;57301;50.328;8.542;2022-12-18T13:03:03;99723.88;;;-5.57;80.27
69971;BME280;57301;50.328;8.542;2022-12-18T13:08:11;99716.84;;;-5.54;81.27
69971;BME280;57301;50.328;8.542;2022-12-18T13:10:40;99734.34;;;-5.11;79.84
69971;BME280;57301;50.328;8.542;2022-12-18T13:13:10;99724.28;;;-5.31;79.59
69971;BME280;57301;50.328;8.542;2022-12-18T13:15:42;99709.03;;;-5.00;78.86
69971;BME280;57301;50.328;8.542;2022-12-18T13:18:13;99712.44;;;-4.98;77.72
69971;BME280;57301;50.328;8.542;2022-12-18T13:23:38;99710.16;;;-5.16;78.85
69971;BME280;57301;50.328;8.542;2022-12-18T13:31:01;99700.91;;;-5.31;80.32
69971;BME280;57301;50.328;8.542;2022-12-18T13:36:16;99705.06;;;-5.22;80.30
69971;BME280;57301;50.328;8.542;2022-12-18T13:39:15;99704.78;;;-5.05;80.13
69971;BME280;57301;50.328;8.542;2022-12-18T13:44:57;99708.84;;;-4.44;77.84
69971;BME280;57301;50.328;8.542;2022-12-18T13:47:43;99719.09;;;-5.31;79.39
69971;BME280;57301;50.328;8.542;2022-12-18T13:50:23;99716.50;;;-5.31;81.57
69971;BME280;57301;50.328;8.542;2022-12-18T13:52:57;99697.97;;;-5.65;83.51
69971;BME280;57301;50.328;8.542;2022-12-18T13:55:24;99686.84;;;-5.19;81.97
69971;BME280;57301;50.328;8.542;2022-12-18T13:58:03;99689.47;;;-5.21;81.58
69971;BME280;57301;50.328;8.542;2022-12-18T14:00:30;99685.31;;;-5.31;81.89
69971;BME280;57301;50.328;8.542;2022-12-18T14:02:59;99678.03;;;-5.12;81.43
69971;BME280;57301;50.328;8.542;2022-12-18T14:05:35;99678.63;;;-5.47;82.09
69971;BME280;57301;50.328;8.542;2022-12-18T14:08:13;99686.22;;;-5.35;82.80
69971;BME280;57301;50.328;8.542;2022-12-18T14:10:42;99691.75;;;-5.55;83.23
69971;BME280;57301;50.328;8.542;2022-12-18T14:13:22;99694.59;;;-5.18;82.77
69971;BME280;57301;50.328;8.542;2022-12-18T14:15:50;99696.41;;;-5.21;82.00
69971;BME280;57301;50.328;8.542;2022-12-18T14:18:25;99690.31;;;-5.19;81.83
69971;BME280;57301;50.328;8.542;2022-12-18T14:20:55;99704.16;;;-5.18;82.38
69971;BME280;57301;50.328;8.542;2022-12-18T14:25:52;99705.97;;;-5.23;82.92
69971;BME280;57301;50.328;8.542;2022-12-18T14:28:18;99705.22;;;-4.80;81.22
69971;BME280;57301;50.328;8.542;2022-12-18T14:30:45;99703.22;;;-5.14;81.32
69971;BME280;57301;50.328;8.542;2022-12-18T14:33:15;99703.91;;;-5.03;81.84
69971;BME280;57301;50.328;8.542;2022-12-18T14:36:03;99708.81;;;-5.37;83.03
69971;BME280;57301;50.328;8.542;2022-12-18T14:38:38;99702.56;;;-5.28;83.59
69971;BME280;57301;50.328;8.542;2022-12-18T14:43:33;99702.84;;;-5.44;84.43
69971;BME280;57301;50.328;8.542;2022-12-18T14:46:01;99704.44;;;-5.35;84.29
69971;BME280;57301;50.328;8.542;2022-12-18T14:51:04;99701.28;;;-5.52;86.24
69971;BME280;57301;50.328;8.542;2022-12-18T14:53:43;99694.53;;;-5.13;84.84